KFLG

Flagstaff Pulliam Airport

Flagstaff, Arizona, USA
METAR KFLG 210657Z AUTO 00000KT 10SM CLR 05/M10 A3007 RMK AO2 SLP105 T00501100 402110011
Observed Flight Rules
May-21 @ 06:57 UTC (20 minutes ago) Visual Flight Rules
Visibility Clouds
10 miles
  • Clear skies
Temperatures Readings
Current 5°C / 41°F
Dewpoint -10°C / 14°F
Humidity 33%
Altimeter 30.07" Hg
Pressure 1010.5 hPa
Elevation 2134
METAR KFLG 210657Z AUTO 00000KT 10SM CLR 05/M10 A3007 RMK AO2 SLP105 T00501100 402110011
Observed Flight Rules
May-21 @ 06:57 UTC
(20 minutes ago)
VFR
Clouds
  • Clear skies
Temperature Dewpoint
5°C / 41°F -10°C / 14°F
Humidity Altimeter Pressure
33% 30.07" Hg 1010.5 hPa